Time;durP1;ratioP1;P1;durP2;ratioP2;P2;SDS_P1;SDS_P2;PMS_P1;PMS_P2;Temp;Humidity;BMP_temperature;BMP_pressure;BME280_temperature;BME280_humidity;BME280_pressure;Samples;Min_cycle;Max_cycle;Signal;HPM_P1;HPM_P2
2021/11/07 00:02:20;;;;;;;27.20;24.40;;;3.70;99.90;;;;;;5071380;28;20490;-82
2021/11/07 00:04:49;;;;;;;32.83;26.97;;;3.70;99.90;;;;;;5071937;28;20461;-82
2021/11/07 00:07:21;;;;;;;32.13;27.80;;;3.70;99.90;;;;;;5071639;28;20452;-81
2021/11/07 00:09:59;;;;;;;37.90;28.40;;;3.80;99.90;;;;;;5071311;28;20478;-82
2021/11/07 00:12:28;;;;;;;32.80;28.70;;;3.80;99.90;;;;;;5071389;28;20451;-81
2021/11/07 00:14:56;;;;;;;32.87;26.67;;;3.90;99.90;;;;;;5071268;28;20949;-81
2021/11/07 00:17:26;;;;;;;30.20;26.77;;;3.90;99.90;;;;;;5071652;28;20447;-80
2021/11/07 00:19:56;;;;;;;34.23;26.40;;;3.90;99.90;;;;;;5071369;28;20456;-80
2021/11/07 00:22:31;;;;;;;29.33;26.20;;;3.80;99.90;;;;;;5071240;28;20454;-79
2021/11/07 00:25:03;;;;;;;32.10;27.37;;;3.80;99.90;;;;;;5071349;28;20431;-79
2021/11/07 00:27:34;;;;;;;31.00;25.97;;;3.90;99.90;;;;;;5071283;28;20945;-78
2021/11/07 00:30:11;;;;;;;44.60;29.37;;;3.90;99.90;;;;;;5070860;28;20483;-78
2021/11/07 00:32:46;;;;;;;42.40;29.90;;;4.00;99.90;;;;;;5071334;28;20460;-78
2021/11/07 00:38:00;;;;;;;34.00;27.50;;;4.20;99.90;;;;;;5071183;28;20978;-79
2021/11/07 00:40:31;;;;;;;35.13;29.83;;;4.30;99.90;;;;;;5070868;28;20857;-79
2021/11/07 00:43:02;;;;;;;38.90;29.60;;;4.40;99.90;;;;;;5070892;28;20749;-78
2021/11/07 00:45:36;;;;;;;32.30;28.80;;;4.40;99.90;;;;;;5070799;28;20814;-80
2021/11/07 00:48:21;;;;;;;30.93;27.70;;;4.40;99.90;;;;;;5071015;28;20461;-79
2021/11/07 00:50:58;;;;;;;35.00;30.13;;;4.40;99.90;;;;;;5070719;28;20498;-79
2021/11/07 00:53:42;;;;;;;35.20;27.90;;;4.40;99.90;;;;;;5070784;28;20898;-78
2021/11/07 01:01:43;;;;;;;33.03;28.67;;;4.40;99.90;;;;;;5054937;28;20504;-79
2021/11/07 01:04:12;;;;;;;34.40;28.40;;;4.30;99.90;;;;;;5070757;28;20981;-79
2021/11/07 01:06:41;;;;;;;29.77;26.57;;;4.40;99.90;;;;;;5070361;28;20448;-80
2021/11/07 01:09:10;;;;;;;33.77;28.90;;;4.50;99.90;;;;;;5070633;28;20482;-80
2021/11/07 01:11:37;;;;;;;30.23;27.10;;;4.50;99.90;;;;;;5070476;28;20454;-79
2021/11/07 01:14:05;;;;;;;34.77;27.13;;;4.50;99.90;;;;;;5070915;28;20459;-79
2021/11/07 01:16:33;;;;;;;32.87;28.97;;;4.50;99.90;;;;;;5070561;28;20962;-77
2021/11/07 01:19:00;;;;;;;30.47;27.20;;;4.50;99.90;;;;;;5070257;28;20460;-78
2021/11/07 01:21:30;;;;;;;26.90;24.20;;;4.40;99.90;;;;;;5070146;28;20443;-78
2021/11/07 01:23:59;;;;;;;28.87;24.70;;;4.30;99.90;;;;;;5070500;28;20470;-77
2021/11/07 01:26:30;;;;;;;26.70;24.20;;;4.00;99.90;;;;;;5070666;28;20458;-77
2021/11/07 01:29:03;;;;;;;33.00;26.90;;;3.90;99.90;;;;;;5070591;28;20530;-80
2021/11/07 01:31:29;;;;;;;31.07;25.70;;;3.90;99.90;;;;;;5070288;28;20463;-81
2021/11/07 01:33:58;;;;;;;29.87;26.67;;;3.90;99.90;;;;;;5070199;28;20486;-79
2021/11/07 01:36:35;;;;;;;27.90;24.90;;;3.80;99.90;;;;;;5070630;28;20455;-79
2021/11/07 01:39:09;;;;;;;27.30;24.57;;;3.80;99.90;;;;;;5070372;28;21002;-79
2021/11/07 01:41:44;;;;;;;29.67;25.70;;;3.80;99.90;;;;;;5070760;28;20449;-80
2021/11/07 01:44:11;;;;;;;28.70;25.10;;;3.80;99.90;;;;;;5070611;28;20431;-78
2021/11/07 01:46:42;;;;;;;28.30;25.33;;;3.90;99.90;;;;;;5070400;28;20489;-77
2021/11/07 01:49:12;;;;;;;27.93;24.93;;;3.90;99.90;;;;;;5070180;28;20528;-77
2021/11/07 01:51:46;;;;;;;30.90;24.63;;;3.80;99.90;;;;;;5070257;28;20937;-77
2021/11/07 01:54:20;;;;;;;27.60;24.77;;;3.80;99.90;;;;;;5070325;28;20673;-78
2021/11/07 01:56:49;;;;;;;30.03;26.90;;;3.80;99.90;;;;;;5070594;28;20432;-78
2021/11/07 01:59:16;;;;;;;27.27;24.47;;;3.70;99.90;;;;;;5070077;28;20510;-77
2021/11/07 02:01:43;;;;;;;29.13;26.03;;;3.70;99.90;;;;;;5070123;28;20442;-79
2021/11/07 02:04:10;;;;;;;27.73;25.03;;;3.80;99.90;;;;;;5070210;28;20815;-78
2021/11/07 02:06:37;;;;;;;25.80;23.43;;;3.80;99.90;;;;;;5070251;28;20442;-78
2021/11/07 02:09:04;;;;;;;26.57;23.97;;;3.70;99.90;;;;;;5070112;28;20450;-78
2021/11/07 02:11:31;;;;;;;26.63;23.97;;;3.70;99.90;;;;;;5069945;28;20547;-78
2021/11/07 02:13:59;;;;;;;28.87;26.03;;;3.70;99.90;;;;;;5070216;28;20454;-77
2021/11/07 02:16:26;;;;;;;26.60;24.10;;;3.60;99.90;;;;;;5070144;28;20449;-76
2021/11/07 02:18:53;;;;;;;27.43;24.93;;;3.60;99.90;;;;;;5070004;28;20517;-80
2021/11/07 02:21:21;;;;;;;29.37;26.50;;;3.60;99.90;;;;;;5070739;28;20458;-81
2021/11/07 02:23:48;;;;;;;29.60;26.57;;;3.70;99.90;;;;;;5070827;28;21056;-80
2021/11/07 02:26:15;;;;;;;29.77;26.80;;;3.70;99.90;;;;;;5073589;28;20454;-80
2021/11/07 02:28:45;;;;;;;29.00;25.97;;;3.70;99.90;;;;;;5073464;28;20863;-80
2021/11/07 02:31:15;;;;;;;29.57;26.47;;;3.70;99.90;;;;;;5073513;28;20483;-81
2021/11/07 02:33:42;;;;;;;30.90;27.77;;;3.70;99.90;;;;;;5073433;28;20465;-79
2021/11/07 02:36:12;;;;;;;31.90;27.27;;;3.70;99.90;;;;;;5073689;28;20553;-80
2021/11/07 02:38:41;;;;;;;37.77;31.53;;;3.70;99.90;;;;;;5073191;28;20820;-77
2021/11/07 02:41:09;;;;;;;39.20;32.10;;;3.70;99.90;;;;;;5073415;28;20443;-78
2021/11/07 02:43:44;;;;;;;33.13;28.80;;;3.80;99.90;;;;;;5073463;28;20454;-77
2021/11/07 02:46:15;;;;;;;33.47;30.10;;;3.90;99.90;;;;;;5073165;28;20500;-77
2021/11/07 02:48:43;;;;;;;36.20;30.13;;;3.90;99.90;;;;;;5073295;28;20824;-77
2021/11/07 02:51:10;;;;;;;33.97;30.27;;;3.90;99.90;;;;;;5073028;28;20489;-78
2021/11/07 02:53:37;;;;;;;34.60;30.80;;;3.80;99.90;;;;;;5073109;28;20911;-77
2021/11/07 02:56:06;;;;;;;32.83;29.33;;;3.80;99.90;;;;;;5073054;28;20949;-77
2021/11/07 02:58:33;;;;;;;36.03;32.43;;;3.90;99.90;;;;;;5073110;28;20457;-78
2021/11/07 03:01:00;;;;;;;33.80;30.27;;;4.00;99.90;;;;;;5072767;28;20836;-78
2021/11/07 03:03:27;;;;;;;33.67;30.33;;;4.00;99.90;;;;;;5072957;28;20508;-80
2021/11/07 03:05:55;;;;;;;32.40;29.20;;;4.00;99.90;;;;;;5072834;28;20459;-80
2021/11/07 03:08:22;;;;;;;32.37;29.20;;;3.90;99.90;;;;;;5073051;28;20817;-79
2021/11/07 03:10:49;;;;;;;33.53;30.17;;;3.90;99.90;;;;;;5072655;28;20494;-79
2021/11/07 03:13:19;;;;;;;33.20;29.90;;;3.80;99.90;;;;;;5072800;28;20451;-80
2021/11/07 03:15:46;;;;;;;32.70;29.60;;;3.80;99.90;;;;;;5072588;28;20466;-80
2021/11/07 03:18:13;;;;;;;32.20;29.10;;;3.70;99.90;;;;;;5072956;28;20451;-79
2021/11/07 03:20:40;;;;;;;29.67;26.87;;;3.60;99.90;;;;;;5072494;28;20443;-80
2021/11/07 03:23:07;;;;;;;29.77;26.87;;;3.60;99.90;;;;;;5072660;28;20815;-80
2021/11/07 03:25:47;;;;;;;31.13;28.40;;;3.50;99.90;;;;;;5072613;28;20469;-79
2021/11/07 03:28:14;;;;;;;31.53;28.33;;;3.40;99.90;;;;;;5072379;28;20453;-80
2021/11/07 03:30:48;;;;;;;32.13;28.67;;;3.30;99.90;;;;;;5072651;28;20985;-78
2021/11/07 03:33:22;;;;;;;33.40;30.17;;;3.30;99.90;;;;;;5072274;28;20453;-79
2021/11/07 03:35:49;;;;;;;33.67;30.37;;;3.30;99.90;;;;;;5072081;28;20481;-80
2021/11/07 03:38:16;;;;;;;32.10;28.93;;;3.30;99.90;;;;;;5072202;28;20461;-81
2021/11/07 03:40:43;;;;;;;31.37;28.37;;;3.20;99.90;;;;;;5072021;28;20450;-81
2021/11/07 03:43:10;;;;;;;31.60;28.67;;;3.20;99.90;;;;;;5072431;28;20861;-80
2021/11/07 03:45:37;;;;;;;31.60;28.73;;;3.20;99.90;;;;;;5072185;28;20459;-80
2021/11/07 03:48:06;;;;;;;34.27;30.70;;;3.20;99.90;;;;;;5072218;28;20460;-80
2021/11/07 03:50:33;;;;;;;31.03;28.17;;;3.20;99.90;;;;;;5072089;28;20480;-79
2021/11/07 03:53:00;;;;;;;30.87;28.07;;;3.10;99.90;;;;;;5071797;28;20459;-80
2021/11/07 03:55:28;;;;;;;30.57;27.73;;;3.10;99.90;;;;;;5071702;28;20451;-79
2021/11/07 03:57:55;;;;;;;31.00;28.30;;;3.10;99.90;;;;;;5071862;28;20451;-81
2021/11/07 04:00:22;;;;;;;33.83;30.57;;;3.10;99.90;;;;;;5072082;28;20482;-81
2021/11/07 04:02:50;;;;;;;31.20;28.20;;;3.10;99.90;;;;;;5071999;28;20451;-81
2021/11/07 04:05:18;;;;;;;31.13;28.10;;;3.10;99.90;;;;;;5072142;28;20482;-85
2021/11/07 04:07:45;;;;;;;32.87;29.20;;;3.10;99.90;;;;;;5071623;28;20474;-81
2021/11/07 04:10:13;;;;;;;32.10;29.00;;;3.10;99.90;;;;;;5071645;28;20539;-80
2021/11/07 04:12:40;;;;;;;31.17;28.33;;;3.10;99.90;;;;;;5071372;28;20458;-80
2021/11/07 04:15:08;;;;;;;32.57;28.87;;;3.10;99.90;;;;;;5071938;28;20508;-80
2021/11/07 04:17:35;;;;;;;31.23;28.00;;;3.10;99.90;;;;;;5071812;28;20448;-80
2021/11/07 04:20:03;;;;;;;31.30;28.00;;;3.10;99.90;;;;;;5071370;28;20523;-83
2021/11/07 04:22:32;;;;;;;32.30;29.30;;;3.10;99.90;;;;;;5072047;28;20456;-84
2021/11/07 04:24:58;;;;;;;34.17;29.67;;;3.00;99.90;;;;;;5071991;28;20505;-84
2021/11/07 04:27:26;;;;;;;32.57;29.40;;;3.00;99.90;;;;;;5071929;28;20462;-83
2021/11/07 04:29:53;;;;;;;30.87;28.03;;;3.10;99.90;;;;;;5071902;28;20446;-84
2021/11/07 04:32:19;;;;;;;31.07;28.30;;;3.00;99.90;;;;;;5071896;28;20459;-83
2021/11/07 04:34:46;;;;;;;30.67;27.73;;;3.00;99.90;;;;;;5071569;28;20458;-84
2021/11/07 04:37:13;;;;;;;28.03;25.53;;;3.10;99.90;;;;;;5071839;28;20454;-82
2021/11/07 04:39:41;;;;;;;29.67;26.67;;;3.20;99.90;;;;;;5071861;28;20453;-85
2021/11/07 04:42:10;;;;;;;31.27;28.17;;;3.40;99.90;;;;;;5071640;28;20473;-85
2021/11/07 04:44:37;;;;;;;29.40;26.67;;;3.30;99.90;;;;;;5071835;28;20441;-85
2021/11/07 04:47:04;;;;;;;27.23;24.80;;;3.30;99.90;;;;;;5072213;28;20450;-85
2021/11/07 04:49:31;;;;;;;29.37;26.77;;;3.30;99.90;;;;;;5071601;28;20955;-86
2021/11/07 04:51:59;;;;;;;30.87;27.93;;;3.30;99.90;;;;;;5071300;28;20484;-84
2021/11/07 04:54:27;;;;;;;30.07;27.17;;;3.30;99.90;;;;;;5071357;28;20562;-84
2021/11/07 04:56:55;;;;;;;30.10;27.23;;;3.20;99.90;;;;;;5071857;28;20459;-83
2021/11/07 04:59:21;;;;;;;30.07;27.23;;;3.20;99.90;;;;;;5071514;28;20481;-85
2021/11/07 05:01:48;;;;;;;29.17;26.23;;;3.20;99.90;;;;;;5071447;28;20446;-85
2021/11/07 05:04:15;;;;;;;30.13;27.13;;;3.20;99.90;;;;;;5070857;28;20502;-85
2021/11/07 05:06:42;;;;;;;29.63;26.20;;;3.20;99.90;;;;;;5071591;28;20456;-85
2021/11/07 05:09:08;;;;;;;29.43;26.73;;;3.20;99.90;;;;;;5071880;28;20453;-88
2021/11/07 05:11:36;;;;;;;30.37;27.57;;;3.20;99.90;;;;;;5080771;28;20496;-88
2021/11/07 05:14:04;;;;;;;28.57;26.07;;;3.10;99.90;;;;;;5091448;28;20456;-89
2021/11/07 05:16:31;;;;;;;29.97;26.90;;;3.10;99.90;;;;;;5076350;28;20461;-82
2021/11/07 05:18:58;;;;;;;32.47;29.50;;;3.10;99.90;;;;;;5070800;28;20768;-79
2021/11/07 05:21:25;;;;;;;32.70;28.10;;;3.10;99.90;;;;;;5070603;28;20462;-80
2021/11/07 05:23:51;;;;;;;28.53;25.93;;;3.10;99.90;;;;;;5071018;28;20455;-79
2021/11/07 05:26:18;;;;;;;27.80;25.27;;;3.10;99.90;;;;;;5070808;28;20801;-79
2021/11/07 05:28:45;;;;;;;28.00;25.27;;;3.10;99.90;;;;;;5070437;28;20459;-79
2021/11/07 05:31:13;;;;;;;29.20;26.50;;;3.00;99.90;;;;;;5070275;28;20484;-80
2021/11/07 05:33:40;;;;;;;29.83;26.83;;;3.00;99.90;;;;;;5070554;28;20455;-80
2021/11/07 05:36:07;;;;;;;29.70;26.83;;;3.00;99.90;;;;;;5070782;28;20454;-81
2021/11/07 05:38:34;;;;;;;29.20;26.60;;;3.00;99.90;;;;;;5070899;28;20451;-80
2021/11/07 05:41:01;;;;;;;30.60;27.70;;;2.90;99.90;;;;;;5070266;28;20444;-78
2021/11/07 05:43:28;;;;;;;29.37;26.20;;;2.90;99.90;;;;;;5070266;28;21224;-79
2021/11/07 05:45:54;;;;;;;28.70;26.00;;;2.90;99.90;;;;;;5070622;28;20466;-79
2021/11/07 05:48:23;;;;;;;29.67;26.77;;;2.90;99.90;;;;;;5070688;28;20860;-78
2021/11/07 05:50:50;;;;;;;30.73;27.40;;;2.90;99.90;;;;;;5070526;28;20488;-81
2021/11/07 05:53:17;;;;;;;31.43;28.60;;;2.90;99.90;;;;;;5070093;28;20455;-81
2021/11/07 05:55:43;;;;;;;29.77;26.93;;;3.00;99.90;;;;;;5070422;28;20447;-80
2021/11/07 05:58:10;;;;;;;30.83;27.50;;;2.90;99.90;;;;;;5071748;28;20449;-79
2021/11/07 06:00:38;;;;;;;30.30;27.43;;;2.90;99.90;;;;;;5074088;28;20474;-88
2021/11/07 06:03:06;;;;;;;28.50;26.00;;;2.80;99.90;;;;;;5075417;28;20470;-81
2021/11/07 06:05:35;;;;;;;29.90;27.20;;;2.80;99.90;;;;;;5074280;28;20989;-82
2021/11/07 06:08:03;;;;;;;29.83;26.93;;;2.70;99.90;;;;;;5074174;28;20947;-82
2021/11/07 06:10:30;;;;;;;28.57;25.77;;;2.70;99.90;;;;;;5074056;28;20478;-81
2021/11/07 06:12:56;;;;;;;27.70;25.27;;;2.70;99.90;;;;;;5073925;28;21278;-80
2021/11/07 06:15:23;;;;;;;30.03;27.20;;;2.70;99.90;;;;;;5073843;28;20515;-80
2021/11/07 06:17:50;;;;;;;30.97;28.03;;;2.70;99.90;;;;;;5074001;28;20453;-80
2021/11/07 06:20:17;;;;;;;32.03;28.97;;;2.70;99.90;;;;;;5073792;28;20454;-81
2021/11/07 06:22:45;;;;;;;27.77;25.17;;;2.70;99.90;;;;;;5074673;28;20454;-86
2021/11/07 06:25:12;;;;;;;30.13;27.10;;;2.70;99.90;;;;;;5077451;28;21021;-87
2021/11/07 06:27:38;;;;;;;30.43;27.77;;;2.70;99.90;;;;;;5074046;28;20480;-81
2021/11/07 06:30:08;;;;;;;30.33;27.13;;;2.70;99.90;;;;;;5073859;28;20825;-81
2021/11/07 06:32:35;;;;;;;31.23;28.50;;;2.80;99.90;;;;;;5073744;28;20485;-81
2021/11/07 06:35:02;;;;;;;29.27;26.47;;;2.80;99.90;;;;;;5073887;28;20452;-82
2021/11/07 06:37:29;;;;;;;28.27;25.67;;;2.90;99.90;;;;;;5073987;28;21195;-82
2021/11/07 06:39:57;;;;;;;28.70;26.10;;;2.90;99.90;;;;;;5073557;28;20481;-83
2021/11/07 06:42:24;;;;;;;29.57;26.87;;;2.90;99.90;;;;;;5073188;28;20457;-83
2021/11/07 06:44:51;;;;;;;28.57;25.87;;;2.90;99.90;;;;;;5074126;28;20454;-82
2021/11/07 06:47:18;;;;;;;29.50;26.70;;;2.90;99.90;;;;;;5073962;28;20452;-86
2021/11/07 06:49:46;;;;;;;29.93;27.33;;;3.00;99.90;;;;;;5073917;28;20573;-83
2021/11/07 06:52:13;;;;;;;29.50;26.87;;;3.10;99.90;;;;;;5073450;28;20846;-81
2021/11/07 06:54:40;;;;;;;31.30;27.90;;;3.20;99.90;;;;;;5073820;28;20456;-80
2021/11/07 07:00:30;;;;;;;26.10;23.90;;;3.90;99.90;;;;;;5075139;28;20445;-89
2021/11/07 07:02:57;;;;;;;27.33;24.67;;;4.10;99.90;;;;;;5073251;28;20981;-83
2021/11/07 07:05:24;;;;;;;26.37;24.27;;;4.30;99.90;;;;;;5073151;28;20464;-84
2021/11/07 07:07:55;;;;;;;25.70;23.40;;;4.50;99.90;;;;;;5073590;28;20451;-84
2021/11/07 07:10:25;;;;;;;24.87;22.97;;;4.80;99.90;;;;;;5075433;28;20796;-81
2021/11/07 07:12:58;;;;;;;23.33;21.40;;;5.20;99.90;;;;;;5073409;28;21012;-82
2021/11/07 07:15:27;;;;;;;24.10;22.00;;;5.40;99.90;;;;;;5072252;28;20497;-82
2021/11/07 07:18:04;;;;;;;24.60;22.47;;;5.60;99.90;;;;;;5073004;28;20466;-83
2021/11/07 07:20:48;;;;;;;23.47;21.50;;;5.80;99.90;;;;;;5072723;28;20464;-81
2021/11/07 07:23:34;;;;;;;25.20;22.90;;;6.10;99.90;;;;;;5072843;28;20488;-85
2021/11/07 07:26:15;;;;;;;21.27;19.63;;;6.00;99.90;;;;;;5077785;28;20470;-88
2021/11/07 07:28:52;;;;;;;23.50;21.67;;;6.10;99.90;;;;;;5073624;28;20460;-75
2021/11/07 07:31:45;;;;;;;22.90;21.10;;;6.60;99.90;;;;;;5072262;28;20493;-76
2021/11/07 07:34:18;;;;;;;22.93;20.90;;;6.90;99.90;;;;;;5068032;28;20497;-78
2021/11/07 07:36:45;;;;;;;20.90;19.20;;;7.30;99.90;;;;;;5062994;28;21179;-76
2021/11/07 07:39:12;;;;;;;22.77;20.83;;;7.10;99.90;;;;;;5057339;28;20444;-74
2021/11/07 07:41:38;;;;;;;21.87;20.17;;;6.90;99.90;;;;;;5051540;28;20493;-75
2021/11/07 07:44:08;;;;;;;21.47;19.83;;;7.00;99.90;;;;;;5071245;28;20812;-77
2021/11/07 07:46:36;;;;;;;21.10;19.40;;;7.20;99.90;;;;;;5071696;28;20459;-76
2021/11/07 07:49:03;;;;;;;24.20;21.70;;;7.30;99.90;;;;;;5071936;28;20564;-76
2021/11/07 07:51:32;;;;;;;21.53;19.77;;;7.90;99.90;;;;;;5061454;28;20492;-76
2021/11/07 07:54:01;;;;;;;20.10;18.50;;;8.30;99.90;;;;;;5070441;28;20451;-77
2021/11/07 07:56:28;;;;;;;21.77;19.83;;;9.10;99.90;;;;;;5069926;28;21060;-76
2021/11/07 07:58:55;;;;;;;20.20;18.70;;;9.40;99.90;;;;;;5071832;28;20453;-77
2021/11/07 08:01:23;;;;;;;21.90;20.20;;;9.50;99.90;;;;;;5071775;28;20471;-77
2021/11/07 08:03:50;;;;;;;22.30;20.53;;;9.80;99.90;;;;;;5071684;28;20454;-77
2021/11/07 08:06:16;;;;;;;21.37;19.77;;;9.80;99.90;;;;;;5071420;28;20459;-77
2021/11/07 08:08:44;;;;;;;21.63;20.13;;;9.00;99.90;;;;;;5059659;28;20452;-77
2021/11/07 08:11:11;;;;;;;23.37;21.57;;;8.40;99.90;;;;;;5051607;28;20452;-77
2021/11/07 08:13:38;;;;;;;22.27;20.40;;;8.20;99.90;;;;;;5051582;28;20452;-78
2021/11/07 08:16:06;;;;;;;23.20;21.27;;;7.90;99.90;;;;;;5051252;28;20454;-77
2021/11/07 08:18:33;;;;;;;22.13;20.20;;;7.50;99.90;;;;;;5051322;28;20461;-78
2021/11/07 08:21:00;;;;;;;21.93;20.13;;;7.20;99.90;;;;;;5051108;28;20509;-77
2021/11/07 08:23:27;;;;;;;23.60;21.73;;;7.00;99.90;;;;;;5066323;28;20877;-78
2021/11/07 08:25:56;;;;;;;24.93;22.57;;;7.00;99.90;;;;;;5071197;28;20454;-78
2021/11/07 08:28:23;;;;;;;22.90;20.90;;;6.90;99.90;;;;;;5071096;28;20455;-76
2021/11/07 08:30:53;;;;;;;24.17;22.07;;;7.00;99.90;;;;;;5070712;28;20471;-78
2021/11/07 08:33:20;;;;;;;21.80;20.07;;;7.10;99.90;;;;;;5066373;28;21064;-77
2021/11/07 08:35:48;;;;;;;23.80;21.70;;;7.10;99.90;;;;;;5062211;28;20445;-77
2021/11/07 08:38:18;;;;;;;20.50;18.90;;;7.00;99.90;;;;;;5063014;28;20470;-76
2021/11/07 08:40:47;;;;;;;22.73;21.03;;;7.00;99.90;;;;;;5071221;28;20454;-76
2021/11/07 08:54:33;;;;;;;20.73;19.20;;;7.20;99.90;;;;;;5057415;28;20482;-77
2021/11/07 09:02:52;;;;;;;21.27;19.53;;;7.40;99.90;;;;;;5050451;28;20521;-77
2021/11/07 09:05:24;;;;;;;18.70;17.40;;;7.50;99.90;;;;;;5050730;28;20448;-77
2021/11/07 09:08:01;;;;;;;19.87;18.07;;;7.50;99.90;;;;;;5059805;28;20518;-77
2021/11/07 09:10:31;;;;;;;18.20;16.90;;;7.50;99.90;;;;;;5064092;28;20499;-77
2021/11/07 09:12:59;;;;;;;17.77;16.60;;;7.60;99.90;;;;;;5050138;28;20487;-76
2021/11/07 09:15:29;;;;;;;19.47;18.07;;;7.50;99.90;;;;;;5049934;28;20459;-77
2021/11/07 09:17:57;;;;;;;18.40;17.00;;;7.60;99.90;;;;;;5049956;28;20463;-77
2021/11/07 09:20:31;;;;;;;17.97;16.53;;;7.60;99.90;;;;;;5050217;28;20455;-77
2021/11/07 09:23:01;;;;;;;17.50;16.20;;;7.80;99.90;;;;;;5050209;28;21221;-75
2021/11/07 09:25:31;;;;;;;16.80;15.60;;;8.40;99.90;;;;;;5050144;28;20452;-75
2021/11/07 09:28:01;;;;;;;17.60;16.40;;;9.00;99.90;;;;;;5050023;28;20509;-75
2021/11/07 09:30:35;;;;;;;17.00;15.90;;;9.10;99.90;;;;;;5050128;28;20740;-75
2021/11/07 09:33:09;;;;;;;17.30;16.20;;;9.40;99.90;;;;;;5050820;28;20499;-74
2021/11/07 09:35:43;;;;;;;17.13;16.03;;;10.00;99.90;;;;;;5054428;28;20449;-75
2021/11/07 09:38:13;;;;;;;15.93;14.90;;;10.70;99.90;;;;;;5053756;28;20457;-75
2021/11/07 09:40:46;;;;;;;17.90;16.60;;;10.90;99.90;;;;;;5053477;28;20950;-74
2021/11/07 09:43:21;;;;;;;17.17;16.07;;;10.60;99.90;;;;;;5053855;28;20925;-74
2021/11/07 09:45:57;;;;;;;16.90;15.70;;;10.40;99.90;;;;;;5053921;28;20956;-77
2021/11/07 09:48:26;;;;;;;18.47;16.83;;;10.30;99.90;;;;;;5053800;28;20505;-77
2021/11/07 09:50:54;;;;;;;18.47;17.10;;;10.10;99.90;;;;;;5053782;28;20460;-77
2021/11/07 09:53:22;;;;;;;16.73;15.63;;;10.00;99.90;;;;;;5053809;28;20487;-76
2021/11/07 09:55:49;;;;;;;16.73;15.50;;;9.80;99.90;;;;;;5053860;28;20538;-78
2021/11/07 09:58:17;;;;;;;16.80;15.60;;;9.80;99.90;;;;;;5053585;28;20574;-76
2021/11/07 10:00:46;;;;;;;14.47;13.07;;;9.90;99.90;;;;;;5053262;28;20486;-76
2021/11/07 10:03:17;;;;;;;15.50;14.50;;;10.10;99.90;;;;;;5053771;28;20456;-77
2021/11/07 10:05:51;;;;;;;15.67;14.70;;;10.30;99.90;;;;;;5053510;28;20451;-76
2021/11/07 10:08:19;;;;;;;15.93;14.93;;;10.30;99.90;;;;;;5052929;28;20484;-72
2021/11/07 10:10:53;;;;;;;15.07;14.20;;;10.30;99.90;;;;;;5059040;28;20471;-80
2021/11/07 10:13:23;;;;;;;16.40;15.30;;;10.30;99.90;;;;;;5054609;28;20494;-75
2021/11/07 10:16:00;;;;;;;15.83;14.83;;;10.20;99.90;;;;;;5053034;28;20505;-73
2021/11/07 10:19:27;;;;;;;15.17;14.07;;;10.10;99.90;;;;;;5051814;28;20471;-73
2021/11/07 10:22:40;;;;;;;15.00;14.00;;;10.00;99.90;;;;;;5044349;28;20467;-75
2021/11/07 10:25:15;;;;;;;14.70;13.80;;;10.30;99.90;;;;;;5049968;28;20444;-74
2021/11/07 10:27:45;;;;;;;15.93;14.90;;;10.50;99.90;;;;;;5052737;28;21093;-74
2021/11/07 10:30:17;;;;;;;14.57;13.63;;;10.80;99.90;;;;;;5053140;28;20464;-74
2021/11/07 10:32:56;;;;;;;13.93;13.00;;;10.80;99.90;;;;;;5053155;28;20544;-74
2021/11/07 10:41:52;;;;;;;14.10;13.20;;;12.00;99.90;;;;;;5149611;27;21019;-74
2021/11/07 10:44:37;;;;;;;14.83;13.70;;;11.50;99.90;;;;;;5149423;27;20490;-74
2021/11/07 10:47:23;;;;;;;14.60;13.70;;;11.40;99.90;;;;;;5149594;27;20451;-73
2021/11/07 10:52:37;;;;;;;14.40;13.60;;;11.90;99.90;;;;;;5149576;27;20556;-74
2021/11/07 10:55:05;;;;;;;13.53;12.53;;;12.10;99.90;;;;;;5149530;27;20448;-74
2021/11/07 10:57:34;;;;;;;13.93;13.23;;;11.90;99.90;;;;;;5149324;27;20807;-74
2021/11/07 11:00:17;;;;;;;13.40;12.70;;;11.80;99.90;;;;;;5149209;27;20598;-73
2021/11/07 11:02:46;;;;;;;13.90;13.20;;;11.90;99.90;;;;;;5149099;27;20470;-74
2021/11/07 11:05:16;;;;;;;13.33;12.63;;;11.90;99.90;;;;;;5149163;27;20448;-74
2021/11/07 11:08:03;;;;;;;11.97;11.37;;;12.00;99.90;;;;;;5149116;27;20443;-74
2021/11/07 11:10:49;;;;;;;12.27;11.57;;;12.40;99.90;;;;;;5149205;27;20508;-74
2021/11/07 11:13:26;;;;;;;12.77;12.00;;;12.50;99.90;;;;;;5148923;27;20451;-74
2021/11/07 11:16:08;;;;;;;13.63;12.70;;;12.30;99.90;;;;;;5149132;27;20455;-74
2021/11/07 11:18:53;;;;;;;13.33;12.43;;;12.10;99.90;;;;;;5148920;27;20459;-74
2021/11/07 11:21:39;;;;;;;12.10;11.37;;;12.00;99.90;;;;;;5148972;27;20483;-74
2021/11/07 11:24:22;;;;;;;12.03;11.43;;;12.10;99.90;;;;;;5148904;27;20451;-74
2021/11/07 11:27:07;;;;;;;11.37;10.77;;;12.10;99.90;;;;;;5148934;27;20542;-74
2021/11/07 11:32:25;;;;;;;11.63;11.03;;;11.90;99.90;;;;;;5096063;28;20517;-74
2021/11/07 11:34:57;;;;;;;11.80;11.20;;;12.00;99.90;;;;;;5128223;27;20440;-80
2021/11/07 11:37:29;;;;;;;12.00;11.30;;;12.20;99.90;;;;;;5127773;27;20550;-75
2021/11/07 11:40:02;;;;;;;11.90;11.30;;;12.30;99.90;;;;;;5127342;27;20587;-74
2021/11/07 11:42:34;;;;;;;13.10;12.40;;;12.10;99.90;;;;;;5127706;27;20448;-73
2021/11/07 11:45:03;;;;;;;11.90;11.20;;;12.20;99.90;;;;;;5127662;28;20460;-74
2021/11/07 11:47:56;;;;;;;12.00;11.40;;;12.20;99.90;;;;;;5127440;27;20539;-73
2021/11/07 11:50:36;;;;;;;10.97;10.47;;;12.30;99.90;;;;;;5127303;27;20449;-75
2021/11/07 11:53:14;;;;;;;11.50;10.90;;;12.60;99.90;;;;;;5113438;28;20449;-74
2021/11/07 11:55:45;;;;;;;11.20;10.80;;;13.00;99.90;;;;;;5113698;28;20452;-74
2021/11/07 11:58:21;;;;;;;11.43;10.93;;;13.40;99.90;;;;;;5113629;28;20495;-73
2021/11/07 12:00:55;;;;;;;10.70;10.20;;;13.80;99.90;;;;;;5113387;28;20487;-74
2021/11/07 12:06:26;;;;;;;11.87;11.27;;;13.70;99.90;;;;;;5110462;28;20432;-73
2021/11/07 12:09:39;;;;;;;10.30;9.90;;;13.70;99.90;;;;;;5113514;28;20602;-74
2021/11/07 12:12:12;;;;;;;10.00;9.60;;;14.00;99.90;;;;;;5113438;28;20449;-74
2021/11/07 12:15:02;;;;;;;10.77;10.37;;;14.30;99.30;;;;;;5113244;28;20449;-75
2021/11/07 12:17:33;;;;;;;10.23;9.83;;;14.40;99.30;;;;;;5113212;28;20923;-75
2021/11/07 12:20:00;;;;;;;10.17;9.60;;;14.60;99.30;;;;;;5113002;28;20492;-74
2021/11/07 12:22:31;;;;;;;9.93;9.43;;;14.70;98.70;;;;;;5112878;28;20459;-75
2021/11/07 12:25:03;;;;;;;9.50;9.20;;;15.20;98.30;;;;;;5112976;28;20448;-73
2021/11/07 12:27:35;;;;;;;9.77;9.37;;;16.00;96.70;;;;;;5113095;28;20453;-73
2021/11/07 12:30:14;;;;;;;9.90;9.60;;;17.00;95.20;;;;;;5113098;28;20518;-74
2021/11/07 12:32:46;;;;;;;8.67;8.37;;;17.70;93.70;;;;;;5112844;28;20449;-73
2021/11/07 12:35:18;;;;;;;9.77;9.40;;;17.50;93.20;;;;;;5112739;28;20543;-74
2021/11/07 12:40:51;;;;;;;9.33;9.03;;;16.90;94.30;;;;;;5112686;28;20472;-74
2021/11/07 12:43:22;;;;;;;10.20;9.87;;;16.70;94.60;;;;;;5112883;28;20954;-75
2021/11/07 12:45:52;;;;;;;9.70;9.40;;;16.40;95.20;;;;;;5112748;28;20448;-75
2021/11/07 12:48:44;;;;;;;9.70;9.40;;;16.40;95.00;;;;;;5113055;28;20468;-75
2021/11/07 12:51:13;;;;;;;9.50;9.20;;;16.40;95.00;;;;;;5112539;28;20456;-75
2021/11/07 12:54:13;;;;;;;10.60;10.20;;;16.40;95.50;;;;;;5112579;28;20445;-75
2021/11/07 12:56:51;;;;;;;9.90;9.50;;;16.50;95.30;;;;;;5112394;28;20812;-75
2021/11/07 12:59:22;;;;;;;9.27;8.97;;;16.30;96.60;;;;;;5112589;28;20544;-75
2021/11/07 13:02:10;;;;;;;10.10;9.70;;;16.20;97.10;;;;;;5112503;28;20516;-74
2021/11/07 13:04:47;;;;;;;10.10;9.80;;;16.10;97.10;;;;;;5111656;28;20441;-75
2021/11/07 13:07:20;;;;;;;10.20;9.90;;;15.70;98.10;;;;;;5112189;28;20501;-74
2021/11/07 13:09:54;;;;;;;9.13;8.83;;;15.80;98.40;;;;;;5112165;28;20792;-74
2021/11/07 13:12:25;;;;;;;9.80;9.40;;;15.70;98.90;;;;;;5112431;28;20453;-75
2021/11/07 13:15:21;;;;;;;10.60;10.03;;;15.50;99.30;;;;;;5112151;28;20449;-75
2021/11/07 13:18:02;;;;;;;9.50;9.20;;;15.50;99.80;;;;;;5112110;28;20921;-75
2021/11/07 13:20:42;;;;;;;9.43;9.13;;;15.40;99.90;;;;;;5111940;28;20508;-75
2021/11/07 13:23:30;;;;;;;9.63;9.33;;;15.40;99.90;;;;;;5111812;28;20506;-76
2021/11/07 13:26:03;;;;;;;9.80;9.30;;;15.10;99.90;;;;;;5111965;28;20441;-75
2021/11/07 13:28:35;;;;;;;9.80;9.40;;;15.10;99.90;;;;;;5111838;28;20453;-75
2021/11/07 13:31:10;;;;;;;9.83;9.53;;;14.90;99.90;;;;;;5111698;28;20522;-75
2021/11/07 13:33:39;;;;;;;10.10;9.70;;;14.90;99.90;;;;;;5111855;28;20864;-75
2021/11/07 13:36:07;;;;;;;9.80;9.50;;;14.80;99.90;;;;;;5111627;28;20445;-75
2021/11/07 13:38:39;;;;;;;9.10;8.80;;;14.60;99.90;;;;;;5111717;28;20447;-76
2021/11/07 13:41:14;;;;;;;9.93;9.63;;;14.60;99.90;;;;;;5111540;28;20485;-76
2021/11/07 13:43:40;;;;;;;9.83;9.53;;;14.70;99.90;;;;;;5111787;28;20802;-75